createdAt,value
2023-04-27T00:01:44.125Z,4.30
2023-04-27T00:04:11.675Z,4.50
2023-04-27T00:06:39.016Z,5.17
2023-04-27T00:09:06.224Z,5.03
2023-04-27T00:11:33.376Z,5.20
2023-04-27T00:14:00.524Z,4.67
2023-04-27T00:16:27.798Z,4.30
2023-04-27T00:18:55.808Z,4.00
2023-04-27T00:21:23.000Z,4.57
2023-04-27T00:23:50.182Z,4.47
2023-04-27T00:26:17.764Z,4.80
2023-04-27T00:28:45.012Z,5.13
2023-04-27T00:31:12.230Z,5.40
2023-04-27T00:33:39.428Z,5.50
2023-04-27T00:36:06.962Z,4.47
2023-04-27T00:38:34.383Z,4.30
2023-04-27T00:41:05.110Z,4.30
2023-04-27T00:43:32.779Z,4.43
2023-04-27T00:46:00.592Z,4.40
2023-04-27T00:48:27.888Z,4.20
2023-04-27T00:50:55.237Z,4.30
2023-04-27T00:53:22.501Z,4.67
2023-04-27T00:55:49.813Z,4.63
2023-04-27T00:58:17.041Z,4.47
2023-04-27T01:00:44.519Z,5.10
2023-04-27T01:03:11.971Z,4.93
2023-04-27T01:05:40.054Z,4.53
2023-04-27T01:08:07.351Z,4.40
2023-04-27T01:10:34.565Z,4.77
2023-04-27T01:13:01.932Z,4.50
2023-04-27T01:15:29.312Z,4.57
2023-04-27T01:18:04.503Z,5.17
2023-04-27T01:20:32.481Z,4.73
2023-04-27T01:23:00.133Z,4.30
2023-04-27T01:25:27.300Z,4.57
2023-04-27T01:27:54.876Z,4.70
2023-04-27T01:30:22.751Z,5.10
2023-04-27T01:32:50.538Z,4.57
2023-04-27T01:35:17.953Z,4.40
2023-04-27T01:37:45.201Z,4.10
2023-04-27T01:40:13.139Z,4.00
2023-04-27T01:42:40.398Z,4.23
2023-04-27T01:45:07.987Z,4.07
2023-04-27T01:47:35.210Z,4.50
2023-04-27T01:50:02.460Z,8.47
2023-04-27T01:52:30.113Z,7.37
2023-04-27T01:54:57.440Z,6.03
2023-04-27T01:57:25.553Z,5.20
2023-04-27T01:59:52.992Z,5.20
2023-04-27T02:02:20.232Z,4.60
2023-04-27T02:04:47.757Z,5.57
2023-04-27T02:07:15.036Z,5.93
2023-04-27T02:09:42.298Z,6.70
2023-04-27T02:12:09.491Z,6.37
2023-04-27T02:14:36.663Z,6.73
2023-04-27T02:17:03.956Z,5.27
2023-04-27T02:19:31.183Z,5.20
2023-04-27T02:21:58.558Z,4.87
2023-04-27T02:24:25.663Z,4.90
2023-04-27T02:26:53.017Z,5.07
2023-04-27T02:29:20.323Z,6.17
2023-04-27T02:31:48.485Z,5.77
2023-04-27T02:34:15.783Z,5.43
2023-04-27T02:36:42.988Z,4.87
2023-04-27T02:39:10.361Z,4.57
2023-04-27T02:41:37.548Z,4.20
2023-04-27T02:44:04.801Z,4.57
2023-04-27T02:46:32.569Z,4.43
2023-04-27T02:48:59.916Z,4.10
2023-04-27T02:51:27.742Z,4.17
2023-04-27T02:53:54.927Z,4.13
2023-04-27T02:56:22.214Z,4.23
2023-04-27T02:58:49.470Z,4.10
2023-04-27T03:01:19.742Z,4.20
2023-04-27T03:03:47.870Z,4.10
2023-04-27T03:06:15.356Z,4.33
2023-04-27T03:08:42.895Z,4.37
2023-04-27T03:11:10.178Z,4.30
2023-04-27T03:13:42.126Z,4.43
2023-04-27T03:16:11.231Z,4.10
2023-04-27T03:18:39.269Z,4.17
2023-04-27T03:21:10.692Z,4.53
2023-04-27T03:23:38.169Z,4.30
2023-04-27T03:26:12.397Z,4.87
2023-04-27T03:28:39.961Z,4.60
2023-04-27T03:31:07.917Z,5.10
2023-04-27T03:33:36.315Z,5.37
2023-04-27T03:36:04.510Z,4.27
2023-04-27T03:38:32.174Z,4.20
2023-04-27T03:40:59.490Z,4.50
2023-04-27T03:43:27.070Z,4.40
2023-04-27T03:45:54.480Z,4.40
2023-04-27T03:48:22.491Z,4.47
2023-04-27T03:50:50.331Z,4.30
2023-04-27T03:53:17.538Z,4.27
2023-04-27T03:55:45.728Z,4.30
2023-04-27T03:58:13.185Z,4.63
2023-04-27T04:00:40.998Z,4.67
2023-04-27T04:03:08.711Z,4.60
2023-04-27T04:05:36.410Z,4.63
2023-04-27T04:08:03.678Z,4.40
2023-04-27T04:10:31.017Z,5.20
2023-04-27T04:12:58.278Z,5.07
2023-04-27T04:15:25.558Z,5.20
2023-04-27T04:17:52.862Z,5.60
2023-04-27T04:20:20.331Z,5.80
2023-04-27T04:22:47.534Z,5.87
2023-04-27T04:25:14.875Z,7.90
2023-04-27T04:27:42.735Z,7.00
2023-04-27T04:30:10.617Z,7.60
2023-04-27T04:32:38.136Z,6.30
2023-04-27T04:35:08.643Z,6.00
2023-04-27T04:37:36.524Z,5.20
2023-04-27T04:40:10.917Z,5.40
2023-04-27T04:42:38.377Z,4.90
2023-04-27T04:45:06.123Z,4.83
2023-04-27T04:47:34.290Z,5.20
2023-04-27T04:50:01.614Z,5.10
2023-04-27T04:52:28.835Z,4.50
2023-04-27T04:54:56.006Z,5.10
2023-04-27T04:57:23.278Z,5.23
2023-04-27T04:59:50.596Z,4.70
2023-04-27T05:02:17.880Z,4.50
2023-04-27T05:04:45.851Z,4.37
2023-04-27T05:07:15.072Z,4.50
2023-04-27T05:09:42.814Z,4.37
2023-04-27T05:12:10.299Z,4.10
2023-04-27T05:14:37.544Z,4.60
2023-04-27T05:17:04.784Z,4.70
2023-04-27T05:19:32.259Z,6.87
2023-04-27T05:21:59.624Z,5.10
2023-04-27T05:24:27.310Z,6.17
2023-04-27T05:26:55.040Z,5.43
2023-04-27T05:29:22.758Z,9.33
2023-04-27T05:31:50.060Z,10.10
2023-04-27T05:34:17.458Z,9.00
2023-04-27T05:36:44.788Z,10.07
2023-04-27T05:39:12.185Z,10.57
2023-04-27T05:41:39.854Z,8.33
2023-04-27T05:44:07.310Z,7.50
2023-04-27T05:46:35.940Z,6.90
2023-04-27T05:49:05.714Z,6.10
2023-04-27T05:51:33.512Z,5.30
2023-04-27T05:54:02.172Z,5.27
2023-04-27T05:56:29.548Z,5.10
2023-04-27T05:58:56.764Z,5.30
2023-04-27T06:01:24.002Z,5.33
2023-04-27T06:03:51.511Z,4.80
2023-04-27T06:06:18.856Z,4.53
2023-04-27T06:08:46.364Z,4.93
2023-04-27T06:11:13.553Z,4.80
2023-04-27T06:13:40.803Z,5.37
2023-04-27T06:16:08.293Z,5.23
2023-04-27T06:18:35.555Z,5.43
2023-04-27T06:21:02.932Z,5.33
2023-04-27T06:23:30.295Z,5.00
2023-04-27T06:25:58.800Z,4.73
2023-04-27T06:28:26.244Z,4.87
2023-04-27T06:30:54.019Z,4.60
2023-04-27T06:33:21.370Z,5.30
2023-04-27T06:35:48.611Z,4.90
2023-04-27T06:38:15.803Z,4.83
2023-04-27T06:40:43.056Z,4.50
2023-04-27T06:43:10.196Z,4.20
2023-04-27T06:45:37.588Z,4.60
2023-04-27T06:48:04.893Z,4.70
2023-04-27T06:50:32.102Z,4.27
2023-04-27T06:52:59.433Z,4.13
2023-04-27T06:55:26.698Z,4.37
2023-04-27T06:57:53.893Z,4.13
2023-04-27T07:00:21.874Z,4.00
2023-04-27T07:02:49.266Z,3.93
2023-04-27T07:05:16.537Z,4.60
2023-04-27T07:07:43.801Z,4.20
2023-04-27T07:10:11.194Z,4.20
2023-04-27T07:12:39.023Z,3.80
2023-04-27T07:15:06.807Z,3.80
2023-04-27T07:17:34.093Z,3.83
2023-04-27T07:20:06.148Z,3.77
2023-04-27T07:22:33.801Z,4.03
2023-04-27T07:25:01.181Z,4.17
2023-04-27T07:27:28.413Z,3.70
2023-04-27T07:29:55.620Z,3.60
2023-04-27T07:32:23.008Z,4.23
2023-04-27T07:34:54.157Z,3.73
2023-04-27T07:37:22.432Z,3.60
2023-04-27T07:39:50.457Z,3.90
2023-04-27T07:42:18.512Z,3.37
2023-04-27T07:44:45.723Z,3.67
2023-04-27T07:47:13.306Z,3.77
2023-04-27T07:49:40.523Z,3.30
2023-04-27T07:52:08.521Z,3.50
2023-04-27T07:54:36.075Z,3.70
2023-04-27T07:57:09.319Z,3.40
2023-04-27T07:59:36.606Z,3.73
2023-04-27T08:02:18.529Z,3.40
2023-04-27T08:04:47.041Z,3.50
2023-04-27T08:07:14.956Z,3.77
2023-04-27T08:09:42.266Z,3.50
2023-04-27T08:12:09.672Z,3.80
2023-04-27T08:14:36.921Z,3.40
2023-04-27T08:17:04.213Z,3.30
2023-04-27T08:19:31.438Z,3.08
2023-04-27T08:21:58.716Z,3.50
2023-04-27T08:24:26.054Z,3.57
2023-04-27T08:26:53.337Z,3.50
2023-04-27T08:29:27.966Z,3.22
2023-04-27T08:31:57.062Z,3.53
2023-04-27T08:34:24.565Z,3.45
2023-04-27T08:36:51.955Z,3.25
2023-04-27T08:39:19.171Z,3.55
2023-04-27T08:41:46.665Z,3.03
2023-04-27T08:44:13.956Z,3.00
2023-04-27T08:46:41.678Z,2.67
2023-04-27T08:49:09.967Z,2.90
2023-04-27T08:51:37.260Z,2.72
2023-04-27T08:54:04.687Z,2.70
2023-04-27T08:56:31.892Z,2.90
2023-04-27T08:58:59.617Z,2.78
2023-04-27T09:01:27.613Z,2.90
2023-04-27T09:03:59.066Z,2.70
2023-04-27T09:06:33.694Z,2.40
2023-04-27T09:09:01.595Z,4.60
2023-04-27T09:11:32.721Z,11.23
2023-04-27T09:14:01.022Z,2.95
2023-04-27T09:16:29.325Z,3.40
2023-04-27T09:18:57.293Z,3.20
2023-04-27T09:21:24.617Z,2.67
2023-04-27T09:23:52.017Z,2.80
2023-04-27T09:26:23.422Z,2.50
2023-04-27T09:28:52.108Z,2.42
2023-04-27T09:31:19.647Z,2.75
2023-04-27T09:33:48.582Z,2.85
2023-04-27T09:36:15.938Z,2.40
2023-04-27T09:38:43.323Z,3.03
2023-04-27T09:41:11.150Z,3.22
2023-04-27T09:43:39.182Z,2.60
2023-04-27T09:46:06.457Z,2.50
2023-04-27T09:48:33.727Z,2.60
2023-04-27T09:51:00.929Z,2.40
2023-04-27T09:53:36.718Z,2.40
2023-04-27T09:56:11.537Z,2.67
2023-04-27T09:58:51.005Z,2.65
2023-04-27T10:01:38.475Z,2.72
2023-04-27T10:04:12.085Z,2.42
2023-04-27T10:06:52.289Z,1.80
2023-04-27T10:09:25.883Z,2.13
2023-04-27T10:11:54.337Z,1.80
2023-04-27T10:14:23.100Z,1.70
2023-04-27T10:16:53.748Z,1.70
2023-04-27T10:19:24.727Z,1.77
2023-04-27T10:22:08.058Z,1.52
2023-04-27T10:24:39.210Z,1.40
2023-04-27T10:27:07.888Z,1.40
2023-04-27T10:29:39.225Z,1.55
2023-04-27T10:32:07.236Z,2.05
2023-04-27T10:34:36.957Z,1.40
2023-04-27T10:37:08.079Z,1.67
2023-04-27T10:39:47.090Z,5.15
2023-04-27T10:42:27.256Z,3.17
2023-04-27T10:44:57.158Z,1.40
2023-04-27T10:47:24.798Z,1.80
2023-04-27T10:49:55.399Z,3.05
2023-04-27T10:52:22.641Z,2.33
2023-04-27T10:54:49.849Z,1.30
2023-04-27T10:57:17.055Z,1.30
2023-04-27T10:59:51.746Z,1.30
2023-04-27T11:02:26.653Z,1.20
2023-04-27T11:04:54.155Z,1.20
2023-04-27T11:07:25.690Z,1.42
2023-04-27T11:09:53.249Z,1.40
2023-04-27T11:12:21.563Z,1.33
2023-04-27T11:14:48.917Z,1.95
2023-04-27T11:17:16.192Z,1.52
2023-04-27T11:19:47.544Z,1.85
2023-04-27T11:22:18.342Z,2.10
2023-04-27T11:24:49.478Z,1.80
2023-04-27T11:27:18.000Z,1.50
2023-04-27T11:29:45.771Z,1.45
2023-04-27T11:32:23.115Z,2.05
2023-04-27T11:34:55.607Z,1.50
2023-04-27T11:37:25.627Z,1.63
2023-04-27T11:39:57.635Z,1.40
2023-04-27T11:42:24.939Z,1.30
2023-04-27T11:44:59.412Z,1.30
2023-04-27T11:47:28.079Z,1.30
2023-04-27T11:49:59.066Z,1.30
2023-04-27T11:52:32.467Z,1.30
2023-04-27T11:55:01.079Z,1.95
2023-04-27T11:57:29.529Z,1.50
2023-04-27T11:59:57.597Z,1.40
2023-04-27T12:02:25.046Z,1.40
2023-04-27T12:04:52.659Z,1.63
2023-04-27T12:07:20.714Z,1.40
2023-04-27T12:09:50.132Z,2.28
2023-04-27T12:12:22.543Z,2.80
2023-04-27T12:14:50.379Z,2.95
2023-04-27T12:17:17.646Z,1.50
2023-04-27T12:19:44.860Z,1.77
2023-04-27T12:22:12.615Z,1.60
2023-04-27T12:24:39.843Z,1.50
2023-04-27T12:27:07.682Z,1.38
2023-04-27T12:29:34.911Z,1.40
2023-04-27T12:32:02.123Z,1.50
2023-04-27T12:34:29.423Z,1.10
2023-04-27T12:36:56.673Z,1.23
2023-04-27T12:39:27.484Z,1.20
2023-04-27T12:41:54.990Z,1.30
2023-04-27T12:44:22.792Z,1.20
2023-04-27T12:46:50.626Z,1.15
2023-04-27T12:49:18.407Z,1.10
2023-04-27T12:51:47.909Z,1.30
2023-04-27T12:54:15.310Z,1.30
2023-04-27T12:56:42.747Z,1.83
2023-04-27T12:59:09.972Z,1.40
2023-04-27T13:01:37.484Z,1.77
2023-04-27T13:04:08.154Z,1.38
2023-04-27T13:06:35.543Z,1.50
2023-04-27T13:09:02.852Z,1.23
2023-04-27T13:11:30.106Z,1.75
2023-04-27T13:13:57.339Z,1.70
2023-04-27T13:16:25.828Z,1.90
2023-04-27T13:18:53.860Z,1.40
2023-04-27T13:21:21.419Z,1.60
2023-04-27T13:23:49.405Z,1.48
2023-04-27T13:26:16.689Z,1.50
2023-04-27T13:28:44.244Z,1.25
2023-04-27T13:31:11.973Z,1.35
2023-04-27T13:33:41.788Z,1.40
2023-04-27T13:36:09.782Z,1.30
2023-04-27T13:38:36.939Z,1.60
2023-04-27T13:41:04.632Z,1.30
2023-04-27T13:43:32.126Z,1.27
2023-04-27T13:46:01.207Z,1.52
2023-04-27T13:48:29.132Z,1.20
2023-04-27T13:50:56.550Z,1.45
2023-04-27T13:53:25.917Z,1.15
2023-04-27T13:55:56.459Z,1.38
2023-04-27T13:58:25.784Z,1.30
2023-04-27T14:00:53.953Z,1.30
2023-04-27T14:03:24.816Z,1.17
2023-04-27T14:05:52.156Z,1.10
2023-04-27T14:08:19.818Z,1.45
2023-04-27T14:10:47.300Z,1.20
2023-04-27T14:13:14.757Z,1.30
2023-04-27T14:15:42.240Z,1.17
2023-04-27T14:18:09.774Z,1.30
2023-04-27T14:20:37.626Z,1.40
2023-04-27T14:23:06.447Z,1.60
2023-04-27T14:25:34.591Z,1.25
2023-04-27T14:28:02.854Z,1.40
2023-04-27T14:30:30.109Z,1.50
2023-04-27T14:32:57.382Z,1.98
2023-04-27T14:35:25.000Z,1.50
2023-04-27T14:37:53.221Z,1.40
2023-04-27T14:40:20.711Z,1.40
2023-04-27T14:42:47.930Z,1.38
2023-04-27T14:45:17.326Z,1.27
2023-04-27T14:47:44.778Z,1.75
2023-04-27T14:50:12.165Z,1.17
2023-04-27T14:52:39.682Z,1.60
2023-04-27T14:55:07.705Z,1.48
2023-04-27T14:57:35.445Z,1.42
2023-04-27T15:00:06.708Z,1.40
2023-04-27T15:02:34.329Z,1.65
2023-04-27T15:05:01.885Z,1.38
2023-04-27T15:07:29.353Z,1.40
2023-04-27T15:09:57.019Z,1.40
2023-04-27T15:12:24.441Z,1.48
2023-04-27T15:14:52.818Z,1.60
2023-04-27T15:17:20.492Z,1.60
2023-04-27T15:19:48.127Z,1.30
2023-04-27T15:22:15.359Z,1.55
2023-04-27T15:24:42.533Z,1.40
2023-04-27T15:27:10.093Z,1.50
2023-04-27T15:29:37.763Z,1.60
2023-04-27T15:32:05.106Z,1.67
2023-04-27T15:34:32.566Z,1.55
2023-04-27T15:36:59.834Z,1.60
2023-04-27T15:39:27.530Z,1.60
2023-04-27T15:41:56.504Z,1.58
2023-04-27T15:44:23.726Z,1.58
2023-04-27T15:46:50.999Z,1.92
2023-04-27T15:49:18.167Z,2.00
2023-04-27T15:51:45.496Z,1.60
2023-04-27T15:54:12.736Z,1.50
2023-04-27T15:56:39.938Z,1.40
2023-04-27T15:59:08.058Z,1.35
2023-04-27T16:01:35.759Z,1.50
2023-04-27T16:04:03.204Z,1.52
2023-04-27T16:06:32.220Z,1.55
2023-04-27T16:08:59.503Z,1.55
2023-04-27T16:11:26.722Z,1.33
2023-04-27T16:13:53.932Z,1.80
2023-04-27T16:16:21.255Z,1.70
2023-04-27T16:18:48.528Z,1.52
2023-04-27T16:21:16.133Z,1.60
2023-04-27T16:23:43.309Z,2.28
2023-04-27T16:26:11.164Z,1.80
2023-04-27T16:28:38.445Z,1.60
2023-04-27T16:31:05.935Z,1.85
2023-04-27T16:33:33.226Z,2.20
2023-04-27T16:36:00.569Z,2.20
2023-04-27T16:38:27.792Z,1.90
2023-04-27T16:40:56.146Z,1.70
2023-04-27T16:43:23.509Z,1.80
2023-04-27T16:45:51.096Z,1.65
2023-04-27T16:48:18.362Z,1.63
2023-04-27T16:50:45.786Z,1.70
2023-04-27T16:53:13.773Z,1.65
2023-04-27T16:55:41.276Z,1.65
2023-04-27T16:58:08.545Z,1.77
2023-04-27T17:00:36.026Z,1.73
2023-04-27T17:03:03.465Z,1.60
2023-04-27T17:05:30.925Z,1.45
2023-04-27T17:07:58.161Z,1.67
2023-04-27T17:10:25.427Z,1.70
2023-04-27T17:12:52.770Z,1.50
2023-04-27T17:15:20.710Z,1.80
2023-04-27T17:17:47.996Z,1.65
2023-04-27T17:20:15.416Z,1.67
2023-04-27T17:22:42.588Z,1.65
2023-04-27T17:25:09.867Z,1.80
2023-04-27T17:27:37.368Z,1.50
2023-04-27T17:30:05.133Z,1.90
2023-04-27T17:32:32.597Z,1.60
2023-04-27T17:34:59.875Z,2.00
2023-04-27T17:37:27.099Z,1.70
2023-04-27T17:39:54.574Z,1.63
2023-04-27T17:42:21.763Z,1.52
2023-04-27T17:44:48.994Z,1.65
2023-04-27T17:47:18.699Z,1.88
2023-04-27T17:49:45.950Z,1.60
2023-04-27T17:52:13.221Z,1.80
2023-04-27T17:54:41.199Z,1.92
2023-04-27T17:57:09.476Z,2.10
2023-04-27T17:59:37.412Z,2.10
2023-04-27T18:02:04.684Z,1.90
2023-04-27T18:04:32.018Z,2.75
2023-04-27T18:06:59.336Z,3.30
2023-04-27T18:09:27.057Z,2.53
2023-04-27T18:11:54.240Z,2.72
2023-04-27T18:14:21.581Z,3.03
2023-04-27T18:16:49.045Z,2.72
2023-04-27T18:19:16.456Z,3.80
2023-04-27T18:21:43.976Z,5.38
2023-04-27T18:24:12.547Z,4.63
2023-04-27T18:26:39.736Z,5.10
2023-04-27T18:29:07.467Z,6.07
2023-04-27T18:31:36.186Z,6.68
2023-04-27T18:34:03.569Z,6.90
2023-04-27T18:36:31.568Z,9.52
2023-04-27T18:38:59.739Z,11.15
2023-04-27T18:41:26.953Z,10.20
2023-04-27T18:43:54.182Z,10.70
2023-04-27T18:46:21.501Z,9.63
2023-04-27T18:48:48.891Z,13.73
2023-04-27T18:51:16.074Z,12.43
2023-04-27T18:53:43.387Z,14.13
2023-04-27T18:56:11.054Z,12.23
2023-04-27T18:58:38.266Z,9.67
2023-04-27T19:01:05.973Z,9.40
2023-04-27T19:03:33.415Z,9.03
2023-04-27T19:06:00.776Z,7.25
2023-04-27T19:08:28.037Z,5.83
2023-04-27T19:10:55.240Z,5.10
2023-04-27T19:13:22.464Z,3.53
2023-04-27T19:15:49.702Z,3.50
2023-04-27T19:18:17.079Z,3.50
2023-04-27T19:20:44.727Z,3.40
2023-04-27T19:23:13.460Z,3.80
2023-04-27T19:25:40.717Z,4.20
2023-04-27T19:28:08.560Z,4.33
2023-04-27T19:30:35.984Z,4.23
2023-04-27T19:33:04.393Z,4.13
2023-04-27T19:35:31.698Z,3.57
2023-04-27T19:37:58.887Z,3.40
2023-04-27T19:40:26.177Z,3.20
2023-04-27T19:42:53.419Z,3.80
2023-04-27T19:45:22.171Z,4.70
2023-04-27T19:47:49.459Z,6.30
2023-04-27T19:50:17.393Z,7.07
2023-04-27T19:52:44.643Z,8.20
2023-04-27T19:55:11.962Z,8.40
2023-04-27T19:57:39.157Z,8.97
2023-04-27T20:00:07.213Z,8.73
2023-04-27T20:02:34.560Z,10.07
2023-04-27T20:05:02.405Z,12.63
2023-04-27T20:07:29.748Z,12.77
2023-04-27T20:09:57.206Z,14.10
2023-04-27T20:14:56.428Z,14.00
2023-04-27T20:17:26.215Z,13.60
2023-04-27T20:19:57.142Z,13.87
2023-04-27T20:22:24.635Z,12.77
2023-04-27T20:24:51.950Z,10.87
2023-04-27T20:27:19.237Z,9.53
2023-04-27T20:29:47.326Z,7.80
2023-04-27T20:32:14.532Z,7.70
2023-04-27T20:34:41.736Z,5.13
2023-04-27T20:37:09.593Z,5.27
2023-04-27T20:39:36.833Z,4.97
2023-04-27T20:42:04.074Z,4.20
2023-04-27T20:44:32.312Z,4.33
2023-04-27T20:46:59.569Z,4.07
2023-04-27T20:49:34.508Z,4.80
2023-04-27T20:52:02.762Z,3.87
2023-04-27T20:54:33.307Z,3.00
2023-04-27T20:57:08.522Z,2.87
2023-04-27T20:59:35.875Z,3.43
2023-04-27T21:02:03.521Z,3.10
2023-04-27T21:04:30.925Z,2.80
2023-04-27T21:06:58.368Z,3.20
2023-04-27T21:09:25.569Z,3.10
2023-04-27T21:11:52.937Z,3.50
2023-04-27T21:14:20.241Z,3.83
2023-04-27T21:16:47.480Z,3.90
2023-04-27T21:19:16.553Z,4.03
2023-04-27T21:21:43.786Z,3.83
2023-04-27T21:24:11.094Z,3.60
2023-04-27T21:26:38.348Z,3.80
2023-04-27T21:29:08.152Z,3.60
2023-04-27T21:31:35.972Z,3.50
2023-04-27T21:34:03.721Z,3.53
2023-04-27T21:36:32.209Z,3.97
2023-04-27T21:38:59.424Z,4.53
2023-04-27T21:41:26.795Z,4.93
2023-04-27T21:43:54.003Z,4.90
2023-04-27T21:46:22.958Z,5.40
2023-04-27T21:48:50.314Z,5.60
2023-04-27T21:51:17.609Z,6.20
2023-04-27T21:53:44.810Z,5.43
2023-04-27T21:56:11.996Z,5.83
2023-04-27T21:58:39.199Z,6.17
2023-04-27T22:01:06.639Z,6.57
2023-04-27T22:03:34.153Z,5.90
2023-04-27T22:06:01.513Z,6.07
2023-04-27T22:08:28.697Z,6.40
2023-04-27T22:10:56.437Z,6.50
2023-04-27T22:13:23.649Z,4.50
2023-04-27T22:15:51.263Z,4.07
2023-04-27T22:18:18.672Z,4.27
2023-04-27T22:20:46.186Z,3.60
2023-04-27T22:23:13.500Z,3.80
2023-04-27T22:25:42.894Z,3.40
2023-04-27T22:28:10.943Z,3.50
2023-04-27T22:30:38.425Z,3.50
2023-04-27T22:33:06.352Z,3.83
2023-04-27T22:35:34.348Z,3.57
2023-04-27T22:38:01.727Z,3.87
2023-04-27T22:40:28.968Z,4.10
2023-04-27T22:42:56.173Z,4.10
2023-04-27T22:45:23.972Z,4.40
2023-04-27T22:47:51.327Z,4.07
2023-04-27T22:50:18.673Z,4.07
2023-04-27T22:52:46.100Z,4.40
2023-04-27T22:55:13.807Z,3.97
2023-04-27T22:57:41.959Z,3.97
2023-04-27T23:00:11.723Z,3.83
2023-04-27T23:02:39.737Z,4.00
2023-04-27T23:05:07.389Z,3.80
2023-04-27T23:07:35.035Z,3.60
2023-04-27T23:10:03.270Z,3.83
2023-04-27T23:12:30.908Z,3.87
2023-04-27T23:14:58.851Z,4.37
2023-04-27T23:17:32.683Z,4.60
2023-04-27T23:20:00.981Z,4.77
2023-04-27T23:22:28.677Z,4.63
2023-04-27T23:24:56.321Z,4.60
2023-04-27T23:27:24.976Z,4.50
2023-04-27T23:29:52.845Z,9.13
2023-04-27T23:32:20.325Z,4.20
2023-04-27T23:34:47.708Z,4.00
2023-04-27T23:37:14.904Z,4.90
2023-04-27T23:39:42.201Z,4.50
2023-04-27T23:42:09.399Z,6.40
2023-04-27T23:44:36.651Z,4.93
2023-04-27T23:47:03.870Z,4.40
2023-04-27T23:49:31.051Z,4.20
2023-04-27T23:51:58.249Z,3.70
2023-04-27T23:54:26.165Z,3.90
2023-04-27T23:56:53.437Z,4.70
2023-04-27T23:59:20.704Z,4.50
